SKCGSKSP

Guest
Details From SKCG - RAFAEL NUNEZ
To SKSP - GUSTAVO ROJAS PINILLA
Flight Number -
Tags generated
Created
Modified
Stats Distance 387 nm / 717 km
Max Altitude 34,600 ft / 10,546 m
Waypoints 7
Social Downloads 1
Likes 0
Share VATSIM

Download

Looking for another format? Having issues loading an existing format? Contact us
Advertisement - Login to hide

Notes

Basic altitude profile: - Ascent Rate: 2500ft/min - Ascent Speed: 250kts - Cruise Altitude: 35000ft - Cruise Speed: 420kts - Descent Rate: 1500ft/min - Descent Speed: 250kts Options: - Use NATs: yes - Use PACOTS: yes - Use low airways: yes - Use high airways: yes

Route

SKCG AMBIL UG445 DAGAS G445 SPP SKSP

ID Type Via Altitude Latitude Longitude Leg Dist Tot Dist Heading (true) Name
O SKCG APT - 0 ft / 0 m 10.44238˚ -75.51296˚ - 0 nm - RAFAEL NUNEZ
AMBIL FIX - 34,400 ft / 10,485 m 10.83444˚ -77.09778˚ 96 nm 96 nm 284° / 284° -
AGUJA FIX UG445 (AWY-HI) 34,000 ft / 10,363 m 10.95861˚ -77.41667˚ 20 nm 116 nm 292° / 292° -
DAGAS FIX UG445 (AWY-HI) 34,600 ft / 10,546 m 11.63450˚ -79.13311˚ 108 nm 225 nm 292° / 292° -
NEMIL FIX G445 (AWY-LO) 8,600 ft / 2,621 m 12.34639˚ -81.06722˚ 121 nm 347 nm 291° / 290° -
SPP VOR G445 (AWY-LO) 2,500 ft / 762 m 12.58250˚ -81.70500˚ 39 nm 387 nm 291° / 291° SAN ANDRES VOR-DME
O SKSP APT - 0 ft / 0 m 12.58359˚ -81.71119˚ 0 nm 387 nm 280° / 280° GUSTAVO ROJAS PINILLA

Altitude Profile

Advertisement - Login to hide

Weather


0- 5 10 15 20 25 30 35+ Temperature / ° C

Clouds and Precipitation
Forecast for 2017-12-14 12:00 UTC. Updated an hour ago

Ground ~20,000 ft ~40,000 ft Winds

SKCG

Details ICAO SKCG (CTG)
Name RAFAEL NUNEZ
Region Colombia
Timezone America/Bogota (UTC-5.0)
Stats Elevation 4 ft / 1 m (AMSL)
Location 10.442379° -75.512961°
Runways 1
Magnetic Variation 7.204° W

METAR

SKCG 140800Z 03004KT 9999 FEW015 SCT200 26/24 A2981

Decode

TAF

Not found

Departure Runways

ID Width Length Bearing (true) Bearing (mag) Surface Threshold Offset Overrun Length
01 148 ft / 45 m 8,584 ft / 2,616 m 2.31° 9.51° Asphalt 0 ft / 0 m 180 ft / 55 m
19 148 ft / 45 m 8,584 ft / 2,616 m 182.31° 189.51° Asphalt 190 ft / 58 m 0 ft / 0 m

SKSP

Details ICAO SKSP (ADZ)
Name GUSTAVO ROJAS PINILLA
Region Colombia
Timezone Unknown (UTC+0.0)
Stats Elevation 19 ft / 6 m (AMSL)
Location 12.583595° -81.711191°
Runways 1
Magnetic Variation 3.677° W

METAR

SKSP 140800Z 02011G22KT 9999 SCT012 BKN080 26/22 A2988 REDZ

Decode

TAF

Not found

Destination Runways

ID Width Length Bearing (true) Bearing (mag) Surface Threshold Offset Overrun Length
06 148 ft / 45 m 7,815 ft / 2,382 m 59.54° 63.22° Asphalt 0 ft / 0 m 0 ft / 0 m
24 148 ft / 45 m 7,815 ft / 2,382 m 239.55° 243.23° Asphalt 0 ft / 0 m 180 ft / 55 m

Popular Alternatives